Helmville, Montana
Current Conditions -  °F | °C
As of 12:53 AM on Thursday 27 Nov 2014 (Local Time) from KHLN Reporting Station
Moderate Fog Moderate Fog  
Wind Chill: 27°   Ceiling: 100
Heat Index: 27°   Visibility: 0.25mi
Dew Point: 26°   Wind: 3mph
Humidity: 96%   Direction: NA
Pressure: 30.04"   Gusts: NA
Location:  46.87°N, 112.96°W
Report Text: KHLN 270753Z AUTO VRB03KT 1/4SM FZFG VV001 M03/M03 A3004 RMK AO2 SLP225 T10281033
Loading
Personal Weather Stations






























Interactive Weather Map New forecast layout! Learn more

10-Day Weather Forecast

Advertisements
Track Severe Weather on mobile